INFORMACIÓN METAR y TAF
METAR FOR LIRP
ADDS - METARS form results

(0309 UTC 21 January 2022)
Data provider http://aviationweather.gov/metar/data/
 
METAR text: LIRP 210245Z 12005KT 0500 R04R/0750 FG BKN001 02/02 Q1018 NOSIG
Conditions at: LIRP (PISA (CIV/IT-AFB, IT) observed 0245 UTC 21 January 2022
Temperature: 2.0°C (36°F)
Dewpoint: 2.0°C (36°F) [RH = 100%]
Pressure (altimeter): 30.06 inches Hg (1018.0 mb)
Winds: from the ESE (120 degrees) at 6 MPH (5 knots; 2.6 m/s)
Visibility: 0.31 miles (0.50 km)
Ceiling: 100 feet AGL
Clouds: broken clouds at 100 feet AGL
Weather: FG  (fog)

METAR text: LIRP 210215Z 14004KT 0600 R04R/0700 FG BKN001 02/02 Q1018 NOSIG
Conditions at: LIRP (PISA (CIV/IT-AFB, IT) observed 0215 UTC 21 January 2022
Temperature: 2.0°C (36°F)
Dewpoint: 2.0°C (36°F) [RH = 100%]
Pressure (altimeter): 30.06 inches Hg (1018.0 mb)
Winds: from the SE (140 degrees) at 5 MPH (4 knots; 2.1 m/s)
Visibility: 0.37 miles (0.60 km)
Ceiling: 100 feet AGL
Clouds: broken clouds at 100 feet AGL
Weather: FG  (fog)

Forecast for: LIRP (PISA (CIV/IT-AFB, IT)
Text: TAF LIRP 202300Z 2100/2124 12005KT 9999 SCT020
Forecast period: 0000 UTC 21 January 2022 to 0000 UTC 22 January 2022
Forecast type: FROM: standard forecast or significant change
Winds: from the ESE (120 degrees) at 6 MPH (5 knots; 2.6 m/s)
Visibility: 6 or more miles (10+ km)
Ceiling: at least 12,000 feet AGL
Clouds: scattered clouds at 2000 feet AGL
Weather: no significant weather forecast for this period
Text: PROB40
Forecast period: 0000 to 0700 UTC 21 January 2022
Forecast type: TEMPORARY: The following changes expected for less than half the time period
Visibility: 2.49 miles (4.01 km)
Ceiling: at least 12,000 feet AGL
Clouds: scattered clouds at 500 feet AGL
scattered clouds at 2000 feet AGL
Weather: BR  (mist)

 MAPA DE AEROPUERTO

 INFORMACIÓN DE PISTA
Pista 04L Longitud 9160 ft Ancho 141 ft
Elevación 2 ft Umbral desplazado 979 ft Rumbo de pista 37
Pista 22R Longitud 9160 ft Ancho 141 ft
Elevación 6 ft Umbral desplazado 0 ft Rumbo de pista 217
Pista 04R Longitud 9820 ft Ancho 148 ft
Elevación 3 ft Umbral desplazado 490 ft Rumbo de pista 37
Pista 22L Longitud 9820 ft Ancho 148 ft
Elevación 6 ft Umbral desplazado 843 ft Rumbo de pista 217

 FRECUANCIAS DEL AEROPUERTO
Tipo APP Nombre APP Frecuencia 122.1 MHZ
Tipo GND Nombre GND Frecuencia 121.6 MHZ
Tipo TWR Nombre TWR Frecuencia 119.1 MHZ

 RADIO AYUDAS DEL AEROPUERTO
Tipo TACAN Nombre Pisa Frecuencia 108300 KHZ
Tipo VOR-DME Nombre Pisa Frecuencia 112100 KHZ
Tipo NDB Nombre Pisa Frecuencia 379 KHZ




Powered by Virtual Airlines Manager